sensor_id;sensor_type;location;lat;lon;timestamp;temperature;humidity
59208;DHT22;44977;53.132;6.408;2023-12-07T00:00:39;2.40;99.90
59208;DHT22;44977;53.132;6.408;2023-12-07T00:05:40;2.40;99.90
59208;DHT22;44977;53.132;6.408;2023-12-07T00:10:41;2.40;99.90
59208;DHT22;44977;53.132;6.408;2023-12-07T00:15:42;2.40;99.90
59208;DHT22;44977;53.132;6.408;2023-12-07T00:20:42;2.40;99.90
59208;DHT22;44977;53.132;6.408;2023-12-07T00:25:43;2.40;99.90
59208;DHT22;44977;53.132;6.408;2023-12-07T00:30:46;2.30;99.90
59208;DHT22;44977;53.132;6.408;2023-12-07T00:35:47;2.30;99.90
59208;DHT22;44977;53.132;6.408;2023-12-07T00:40:48;2.30;99.90
59208;DHT22;44977;53.132;6.408;2023-12-07T00:45:49;2.30;99.90
59208;DHT22;44977;53.132;6.408;2023-12-07T00:50:49;2.30;99.90
59208;DHT22;44977;53.132;6.408;2023-12-07T00:55:50;2.30;99.90
59208;DHT22;44977;53.132;6.408;2023-12-07T01:00:51;2.30;99.90
59208;DHT22;44977;53.132;6.408;2023-12-07T01:05:52;2.30;99.90
59208;DHT22;44977;53.132;6.408;2023-12-07T01:10:52;2.30;99.90
59208;DHT22;44977;53.132;6.408;2023-12-07T01:15:53;2.30;99.90
59208;DHT22;44977;53.132;6.408;2023-12-07T01:20:54;2.30;99.90
59208;DHT22;44977;53.132;6.408;2023-12-07T01:25:55;2.30;99.90
59208;DHT22;44977;53.132;6.408;2023-12-07T01:30:55;2.30;99.90
59208;DHT22;44977;53.132;6.408;2023-12-07T01:35:56;2.30;99.90
59208;DHT22;44977;53.132;6.408;2023-12-07T01:40:57;2.30;99.90
59208;DHT22;44977;53.132;6.408;2023-12-07T01:45:58;2.30;99.90
59208;DHT22;44977;53.132;6.408;2023-12-07T01:50:59;2.30;99.90
59208;DHT22;44977;53.132;6.408;2023-12-07T01:56:00;2.20;99.90
59208;DHT22;44977;53.132;6.408;2023-12-07T02:01:02;2.20;99.90
59208;DHT22;44977;53.132;6.408;2023-12-07T02:06:04;2.20;99.90
59208;DHT22;44977;53.132;6.408;2023-12-07T02:11:05;2.20;99.90
59208;DHT22;44977;53.132;6.408;2023-12-07T02:16:13;2.20;99.90
59208;DHT22;44977;53.132;6.408;2023-12-07T02:21:22;2.20;99.90
59208;DHT22;44977;53.132;6.408;2023-12-07T02:26:43;2.20;99.90
59208;DHT22;44977;53.132;6.408;2023-12-07T02:31:44;2.20;99.90
59208;DHT22;44977;53.132;6.408;2023-12-07T02:36:45;2.20;99.90
59208;DHT22;44977;53.132;6.408;2023-12-07T02:41:48;2.10;99.90
59208;DHT22;44977;53.132;6.408;2023-12-07T02:46:49;2.10;99.90
59208;DHT22;44977;53.132;6.408;2023-12-07T02:51:50;2.10;99.90
59208;DHT22;44977;53.132;6.408;2023-12-07T02:56:51;2.10;99.90
59208;DHT22;44977;53.132;6.408;2023-12-07T03:01:52;2.10;99.90
59208;DHT22;44977;53.132;6.408;2023-12-07T03:06:52;2.10;99.90
59208;DHT22;44977;53.132;6.408;2023-12-07T03:11:53;2.10;99.90
59208;DHT22;44977;53.132;6.408;2023-12-07T03:16:54;2.10;99.90
59208;DHT22;44977;53.132;6.408;2023-12-07T03:21:54;2.10;99.90
59208;DHT22;44977;53.132;6.408;2023-12-07T03:26:55;2.10;99.90
59208;DHT22;44977;53.132;6.408;2023-12-07T03:31:55;2.10;99.90
59208;DHT22;44977;53.132;6.408;2023-12-07T03:36:56;2.10;99.90
59208;DHT22;44977;53.132;6.408;2023-12-07T03:41:57;2.00;99.90
59208;DHT22;44977;53.132;6.408;2023-12-07T03:46:57;2.00;99.90
59208;DHT22;44977;53.132;6.408;2023-12-07T03:51:58;2.00;99.90
59208;DHT22;44977;53.132;6.408;2023-12-07T03:56:59;1.90;99.90
59208;DHT22;44977;53.132;6.408;2023-12-07T04:01:59;1.90;99.90
59208;DHT22;44977;53.132;6.408;2023-12-07T04:07:00;1.80;99.90
59208;DHT22;44977;53.132;6.408;2023-12-07T04:12:01;1.80;99.90
59208;DHT22;44977;53.132;6.408;2023-12-07T04:17:01;1.80;99.90
59208;DHT22;44977;53.132;6.408;2023-12-07T04:22:02;1.70;99.90
59208;DHT22;44977;53.132;6.408;2023-12-07T04:27:03;1.70;99.90
59208;DHT22;44977;53.132;6.408;2023-12-07T04:32:04;1.70;99.90
59208;DHT22;44977;53.132;6.408;2023-12-07T04:37:05;1.60;99.90
59208;DHT22;44977;53.132;6.408;2023-12-07T04:42:06;1.60;99.90
59208;DHT22;44977;53.132;6.408;2023-12-07T04:47:06;1.60;99.90
59208;DHT22;44977;53.132;6.408;2023-12-07T04:52:07;1.60;99.90
59208;DHT22;44977;53.132;6.408;2023-12-07T04:57:08;1.50;99.90
59208;DHT22;44977;53.132;6.408;2023-12-07T05:02:09;1.50;99.90
59208;DHT22;44977;53.132;6.408;2023-12-07T05:07:11;1.50;99.90
59208;DHT22;44977;53.132;6.408;2023-12-07T05:12:11;1.50;99.90
59208;DHT22;44977;53.132;6.408;2023-12-07T05:17:12;1.50;99.90
59208;DHT22;44977;53.132;6.408;2023-12-07T05:22:14;1.50;99.90
59208;DHT22;44977;53.132;6.408;2023-12-07T05:27:14;1.50;99.90
59208;DHT22;44977;53.132;6.408;2023-12-07T05:32:15;1.40;99.90
59208;DHT22;44977;53.132;6.408;2023-12-07T05:37:16;1.40;99.90
59208;DHT22;44977;53.132;6.408;2023-12-07T05:42:17;1.40;99.90
59208;DHT22;44977;53.132;6.408;2023-12-07T05:47:17;1.40;99.90
59208;DHT22;44977;53.132;6.408;2023-12-07T05:52:18;1.40;99.90
59208;DHT22;44977;53.132;6.408;2023-12-07T05:57:19;1.40;99.90
59208;DHT22;44977;53.132;6.408;2023-12-07T06:02:19;1.40;99.90
59208;DHT22;44977;53.132;6.408;2023-12-07T06:07:20;1.40;99.90
59208;DHT22;44977;53.132;6.408;2023-12-07T06:12:22;1.40;99.90
59208;DHT22;44977;53.132;6.408;2023-12-07T06:17:22;1.50;99.90
59208;DHT22;44977;53.132;6.408;2023-12-07T06:22:23;1.40;99.90
59208;DHT22;44977;53.132;6.408;2023-12-07T06:27:24;1.40;99.90
59208;DHT22;44977;53.132;6.408;2023-12-07T06:32:24;1.50;99.90
59208;DHT22;44977;53.132;6.408;2023-12-07T06:37:25;1.50;99.90
59208;DHT22;44977;53.132;6.408;2023-12-07T06:42:26;1.50;99.90
59208;DHT22;44977;53.132;6.408;2023-12-07T06:47:27;1.50;99.90
59208;DHT22;44977;53.132;6.408;2023-12-07T06:52:27;1.50;99.90
59208;DHT22;44977;53.132;6.408;2023-12-07T06:57:28;1.60;99.90
59208;DHT22;44977;53.132;6.408;2023-12-07T07:02:29;1.60;99.90
59208;DHT22;44977;53.132;6.408;2023-12-07T07:07:30;1.60;99.90
59208;DHT22;44977;53.132;6.408;2023-12-07T07:12:31;1.60;99.90
59208;DHT22;44977;53.132;6.408;2023-12-07T07:17:32;1.60;99.90
59208;DHT22;44977;53.132;6.408;2023-12-07T07:22:33;1.60;99.90
59208;DHT22;44977;53.132;6.408;2023-12-07T07:27:34;1.60;99.90
59208;DHT22;44977;53.132;6.408;2023-12-07T07:32:35;1.60;99.90
59208;DHT22;44977;53.132;6.408;2023-12-07T07:37:36;1.60;99.90
59208;DHT22;44977;53.132;6.408;2023-12-07T07:42:38;1.60;99.90
59208;DHT22;44977;53.132;6.408;2023-12-07T07:47:40;1.50;99.90
59208;DHT22;44977;53.132;6.408;2023-12-07T07:52:40;1.50;99.90
59208;DHT22;44977;53.132;6.408;2023-12-07T07:57:41;1.50;99.90
59208;DHT22;44977;53.132;6.408;2023-12-07T08:02:43;1.50;99.90
59208;DHT22;44977;53.132;6.408;2023-12-07T08:07:44;1.50;99.90
59208;DHT22;44977;53.132;6.408;2023-12-07T08:12:44;1.50;99.90
59208;DHT22;44977;53.132;6.408;2023-12-07T08:17:45;1.50;99.90
59208;DHT22;44977;53.132;6.408;2023-12-07T08:22:46;1.50;99.90
59208;DHT22;44977;53.132;6.408;2023-12-07T08:27:46;1.50;99.90
59208;DHT22;44977;53.132;6.408;2023-12-07T08:32:47;1.40;99.90
59208;DHT22;44977;53.132;6.408;2023-12-07T08:37:48;1.40;99.90
59208;DHT22;44977;53.132;6.408;2023-12-07T08:42:49;1.40;99.90
59208;DHT22;44977;53.132;6.408;2023-12-07T08:47:49;1.40;99.90
59208;DHT22;44977;53.132;6.408;2023-12-07T08:52:50;1.40;99.90
59208;DHT22;44977;53.132;6.408;2023-12-07T08:57:53;1.50;99.90
59208;DHT22;44977;53.132;6.408;2023-12-07T09:02:53;1.50;99.90
59208;DHT22;44977;53.132;6.408;2023-12-07T09:07:54;1.60;99.90
59208;DHT22;44977;53.132;6.408;2023-12-07T09:12:56;1.70;99.90
59208;DHT22;44977;53.132;6.408;2023-12-07T09:17:57;1.80;99.90
59208;DHT22;44977;53.132;6.408;2023-12-07T09:22:57;2.00;99.90
59208;DHT22;44977;53.132;6.408;2023-12-07T09:27:58;2.10;99.90
59208;DHT22;44977;53.132;6.408;2023-12-07T09:33:00;2.20;99.90
59208;DHT22;44977;53.132;6.408;2023-12-07T09:38:03;2.30;99.90
59208;DHT22;44977;53.132;6.408;2023-12-07T09:43:04;2.50;99.90
59208;DHT22;44977;53.132;6.408;2023-12-07T09:48:05;2.60;99.90
59208;DHT22;44977;53.132;6.408;2023-12-07T09:53:07;2.80;99.90
59208;DHT22;44977;53.132;6.408;2023-12-07T09:58:08;2.90;99.90
59208;DHT22;44977;53.132;6.408;2023-12-07T10:03:20;3.00;99.90
59208;DHT22;44977;53.132;6.408;2023-12-07T10:08:32;3.10;99.90
59208;DHT22;44977;53.132;6.408;2023-12-07T10:13:35;3.20;99.90
59208;DHT22;44977;53.132;6.408;2023-12-07T10:18:36;3.30;99.90
59208;DHT22;44977;53.132;6.408;2023-12-07T10:23:37;3.40;99.90
59208;DHT22;44977;53.132;6.408;2023-12-07T10:28:39;3.40;99.90
59208;DHT22;44977;53.132;6.408;2023-12-07T10:33:39;3.30;99.90
59208;DHT22;44977;53.132;6.408;2023-12-07T10:38:41;3.30;99.90
59208;DHT22;44977;53.132;6.408;2023-12-07T10:43:49;3.20;99.90
59208;DHT22;44977;53.132;6.408;2023-12-07T10:48:55;3.20;99.90
59208;DHT22;44977;53.132;6.408;2023-12-07T10:54:02;3.10;99.90
59208;DHT22;44977;53.132;6.408;2023-12-07T10:59:03;3.10;99.90
59208;DHT22;44977;53.132;6.408;2023-12-07T11:04:05;3.10;99.90
59208;DHT22;44977;53.132;6.408;2023-12-07T11:09:09;3.10;99.90
59208;DHT22;44977;53.132;6.408;2023-12-07T11:14:15;3.10;99.90
59208;DHT22;44977;53.132;6.408;2023-12-07T11:24:32;3.10;99.90
59208;DHT22;44977;53.132;6.408;2023-12-07T11:29:33;3.10;99.90
59208;DHT22;44977;53.132;6.408;2023-12-07T11:34:36;3.20;99.90
59208;DHT22;44977;53.132;6.408;2023-12-07T11:39:37;3.20;99.90
59208;DHT22;44977;53.132;6.408;2023-12-07T11:44:40;3.20;99.90
59208;DHT22;44977;53.132;6.408;2023-12-07T11:49:42;3.20;99.90
59208;DHT22;44977;53.132;6.408;2023-12-07T11:54:47;3.20;99.90
59208;DHT22;44977;53.132;6.408;2023-12-07T11:59:48;3.10;99.90
59208;DHT22;44977;53.132;6.408;2023-12-07T12:04:49;2.90;99.90
59208;DHT22;44977;53.132;6.408;2023-12-07T12:09:49;2.70;99.90
59208;DHT22;44977;53.132;6.408;2023-12-07T12:14:51;2.60;99.90
59208;DHT22;44977;53.132;6.408;2023-12-07T12:19:52;2.50;99.90
59208;DHT22;44977;53.132;6.408;2023-12-07T12:24:55;2.40;99.90
59208;DHT22;44977;53.132;6.408;2023-12-07T12:29:56;2.30;99.90
59208;DHT22;44977;53.132;6.408;2023-12-07T12:34:58;2.30;99.90
59208;DHT22;44977;53.132;6.408;2023-12-07T12:40:05;2.20;99.90
59208;DHT22;44977;53.132;6.408;2023-12-07T12:45:09;2.10;99.90
59208;DHT22;44977;53.132;6.408;2023-12-07T12:50:12;2.00;99.90
59208;DHT22;44977;53.132;6.408;2023-12-07T12:55:13;1.90;99.90
59208;DHT22;44977;53.132;6.408;2023-12-07T13:00:14;1.90;99.90
59208;DHT22;44977;53.132;6.408;2023-12-07T13:05:15;1.80;99.90
59208;DHT22;44977;53.132;6.408;2023-12-07T13:10:16;1.70;99.90
59208;DHT22;44977;53.132;6.408;2023-12-07T13:15:17;1.70;99.90
59208;DHT22;44977;53.132;6.408;2023-12-07T13:20:18;1.60;99.90
59208;DHT22;44977;53.132;6.408;2023-12-07T13:25:19;1.60;99.90
59208;DHT22;44977;53.132;6.408;2023-12-07T13:30:19;1.60;99.90
59208;DHT22;44977;53.132;6.408;2023-12-07T13:35:20;1.50;99.90
59208;DHT22;44977;53.132;6.408;2023-12-07T13:40:21;1.50;99.90
59208;DHT22;44977;53.132;6.408;2023-12-07T13:45:21;1.40;99.90
59208;DHT22;44977;53.132;6.408;2023-12-07T13:50:22;1.40;99.90
59208;DHT22;44977;53.132;6.408;2023-12-07T13:55:24;1.50;99.90
59208;DHT22;44977;53.132;6.408;2023-12-07T14:00:24;1.40;99.90
59208;DHT22;44977;53.132;6.408;2023-12-07T14:05:25;1.40;99.90
59208;DHT22;44977;53.132;6.408;2023-12-07T14:10:26;1.40;99.90
59208;DHT22;44977;53.132;6.408;2023-12-07T14:15:27;1.40;99.90
59208;DHT22;44977;53.132;6.408;2023-12-07T14:20:28;1.40;99.90
59208;DHT22;44977;53.132;6.408;2023-12-07T14:25:28;1.40;99.90
59208;DHT22;44977;53.132;6.408;2023-12-07T14:30:29;1.40;99.90
59208;DHT22;44977;53.132;6.408;2023-12-07T14:35:30;1.40;99.90
59208;DHT22;44977;53.132;6.408;2023-12-07T14:40:30;1.40;99.90
59208;DHT22;44977;53.132;6.408;2023-12-07T14:45:31;1.40;99.90
59208;DHT22;44977;53.132;6.408;2023-12-07T14:50:32;1.40;99.90
59208;DHT22;44977;53.132;6.408;2023-12-07T14:55:33;1.40;99.90
59208;DHT22;44977;53.132;6.408;2023-12-07T15:00:34;1.40;99.90
59208;DHT22;44977;53.132;6.408;2023-12-07T15:05:34;1.40;99.90
59208;DHT22;44977;53.132;6.408;2023-12-07T15:10:35;1.40;99.90
59208;DHT22;44977;53.132;6.408;2023-12-07T15:15:36;1.50;99.90
59208;DHT22;44977;53.132;6.408;2023-12-07T15:20:37;1.50;99.90
59208;DHT22;44977;53.132;6.408;2023-12-07T15:25:37;1.50;99.90
59208;DHT22;44977;53.132;6.408;2023-12-07T15:30:38;1.50;99.90
59208;DHT22;44977;53.132;6.408;2023-12-07T15:35:41;1.50;99.90
59208;DHT22;44977;53.132;6.408;2023-12-07T15:40:42;1.60;99.90
59208;DHT22;44977;53.132;6.408;2023-12-07T15:45:43;1.60;99.90
59208;DHT22;44977;53.132;6.408;2023-12-07T15:50:46;1.60;99.90
59208;DHT22;44977;53.132;6.408;2023-12-07T15:55:47;1.70;99.90
59208;DHT22;44977;53.132;6.408;2023-12-07T16:00:48;1.70;99.90
59208;DHT22;44977;53.132;6.408;2023-12-07T16:05:49;1.70;99.90
59208;DHT22;44977;53.132;6.408;2023-12-07T16:10:49;1.80;99.90
59208;DHT22;44977;53.132;6.408;2023-12-07T16:15:50;1.80;99.90
59208;DHT22;44977;53.132;6.408;2023-12-07T16:20:51;1.90;99.90
59208;DHT22;44977;53.132;6.408;2023-12-07T16:25:52;1.90;99.90
59208;DHT22;44977;53.132;6.408;2023-12-07T16:30:52;2.00;99.90
59208;DHT22;44977;53.132;6.408;2023-12-07T16:35:53;2.00;99.90
59208;DHT22;44977;53.132;6.408;2023-12-07T16:40:55;2.00;99.90
59208;DHT22;44977;53.132;6.408;2023-12-07T16:45:55;2.10;99.90
59208;DHT22;44977;53.132;6.408;2023-12-07T16:50:56;2.00;99.90
59208;DHT22;44977;53.132;6.408;2023-12-07T16:55:57;2.00;99.90
59208;DHT22;44977;53.132;6.408;2023-12-07T17:00:57;2.00;99.90
59208;DHT22;44977;53.132;6.408;2023-12-07T17:05:58;2.00;99.90
59208;DHT22;44977;53.132;6.408;2023-12-07T17:10:59;2.00;99.90
59208;DHT22;44977;53.132;6.408;2023-12-07T17:16:00;2.00;99.90
59208;DHT22;44977;53.132;6.408;2023-12-07T17:21:02;2.00;99.90
59208;DHT22;44977;53.132;6.408;2023-12-07T17:26:03;1.90;99.90
59208;DHT22;44977;53.132;6.408;2023-12-07T17:31:04;1.90;99.90
59208;DHT22;44977;53.132;6.408;2023-12-07T17:36:04;1.90;99.90
59208;DHT22;44977;53.132;6.408;2023-12-07T17:41:05;1.80;99.90
59208;DHT22;44977;53.132;6.408;2023-12-07T17:46:06;1.80;99.90
59208;DHT22;44977;53.132;6.408;2023-12-07T17:51:07;1.80;99.90
59208;DHT22;44977;53.132;6.408;2023-12-07T17:56:08;1.80;99.90
59208;DHT22;44977;53.132;6.408;2023-12-07T18:01:08;1.80;99.90
59208;DHT22;44977;53.132;6.408;2023-12-07T18:06:09;1.70;99.90
59208;DHT22;44977;53.132;6.408;2023-12-07T18:11:20;1.70;99.90
59208;DHT22;44977;53.132;6.408;2023-12-07T18:16:21;1.70;99.90
59208;DHT22;44977;53.132;6.408;2023-12-07T18:21:25;1.70;99.90
59208;DHT22;44977;53.132;6.408;2023-12-07T18:26:25;1.70;99.90
59208;DHT22;44977;53.132;6.408;2023-12-07T18:31:26;1.60;99.90
59208;DHT22;44977;53.132;6.408;2023-12-07T18:36:27;1.70;99.90
59208;DHT22;44977;53.132;6.408;2023-12-07T18:41:28;1.70;99.90
59208;DHT22;44977;53.132;6.408;2023-12-07T18:46:28;1.60;99.90
59208;DHT22;44977;53.132;6.408;2023-12-07T18:51:30;1.60;99.90
59208;DHT22;44977;53.132;6.408;2023-12-07T18:56:31;1.60;99.90
59208;DHT22;44977;53.132;6.408;2023-12-07T19:01:31;1.60;99.90
59208;DHT22;44977;53.132;6.408;2023-12-07T19:06:32;1.60;99.90
59208;DHT22;44977;53.132;6.408;2023-12-07T19:11:33;1.60;99.90
59208;DHT22;44977;53.132;6.408;2023-12-07T19:16:34;1.60;99.90
59208;DHT22;44977;53.132;6.408;2023-12-07T19:21:36;1.60;99.90
59208;DHT22;44977;53.132;6.408;2023-12-07T19:26:37;1.60;99.90
59208;DHT22;44977;53.132;6.408;2023-12-07T19:31:39;1.60;99.90
59208;DHT22;44977;53.132;6.408;2023-12-07T19:36:41;1.60;99.90
59208;DHT22;44977;53.132;6.408;2023-12-07T19:41:42;1.60;99.90
59208;DHT22;44977;53.132;6.408;2023-12-07T19:46:43;1.60;99.90
59208;DHT22;44977;53.132;6.408;2023-12-07T19:51:44;1.60;99.90
59208;DHT22;44977;53.132;6.408;2023-12-07T19:56:45;1.60;99.90
59208;DHT22;44977;53.132;6.408;2023-12-07T20:01:46;1.60;99.90
59208;DHT22;44977;53.132;6.408;2023-12-07T20:06:47;1.60;99.90
59208;DHT22;44977;53.132;6.408;2023-12-07T20:11:47;1.60;99.90
59208;DHT22;44977;53.132;6.408;2023-12-07T20:16:48;1.60;99.90
59208;DHT22;44977;53.132;6.408;2023-12-07T20:21:49;1.50;99.90
59208;DHT22;44977;53.132;6.408;2023-12-07T20:26:50;1.50;99.90
59208;DHT22;44977;53.132;6.408;2023-12-07T20:31:50;1.50;99.90
59208;DHT22;44977;53.132;6.408;2023-12-07T20:36:52;1.60;99.90
59208;DHT22;44977;53.132;6.408;2023-12-07T20:41:53;1.50;99.90
59208;DHT22;44977;53.132;6.408;2023-12-07T20:46:54;1.50;99.90
59208;DHT22;44977;53.132;6.408;2023-12-07T20:51:54;1.60;99.90
59208;DHT22;44977;53.132;6.408;2023-12-07T20:56:55;1.50;99.90
59208;DHT22;44977;53.132;6.408;2023-12-07T21:01:56;1.60;99.90
59208;DHT22;44977;53.132;6.408;2023-12-07T21:06:57;1.60;99.90
59208;DHT22;44977;53.132;6.408;2023-12-07T21:11:58;1.60;99.90
59208;DHT22;44977;53.132;6.408;2023-12-07T21:16:59;1.60;99.90
59208;DHT22;44977;53.132;6.408;2023-12-07T21:22:00;1.60;99.90
59208;DHT22;44977;53.132;6.408;2023-12-07T21:27:01;1.60;99.90
59208;DHT22;44977;53.132;6.408;2023-12-07T21:32:01;1.60;99.90
59208;DHT22;44977;53.132;6.408;2023-12-07T21:37:02;1.70;99.90
59208;DHT22;44977;53.132;6.408;2023-12-07T21:42:03;1.70;99.90
59208;DHT22;44977;53.132;6.408;2023-12-07T21:47:04;1.70;99.90
59208;DHT22;44977;53.132;6.408;2023-12-07T21:52:06;1.70;99.90
59208;DHT22;44977;53.132;6.408;2023-12-07T21:57:06;1.80;99.90
59208;DHT22;44977;53.132;6.408;2023-12-07T22:02:07;1.80;99.90
59208;DHT22;44977;53.132;6.408;2023-12-07T22:07:08;1.80;99.90
59208;DHT22;44977;53.132;6.408;2023-12-07T22:12:08;1.80;99.90
59208;DHT22;44977;53.132;6.408;2023-12-07T22:17:09;1.80;99.90
59208;DHT22;44977;53.132;6.408;2023-12-07T22:22:10;1.80;99.90
59208;DHT22;44977;53.132;6.408;2023-12-07T22:27:11;1.80;99.90
59208;DHT22;44977;53.132;6.408;2023-12-07T22:32:11;1.80;99.90
59208;DHT22;44977;53.132;6.408;2023-12-07T22:37:12;1.80;99.90
59208;DHT22;44977;53.132;6.408;2023-12-07T22:42:13;1.80;99.90
59208;DHT22;44977;53.132;6.408;2023-12-07T22:47:14;1.80;99.90
59208;DHT22;44977;53.132;6.408;2023-12-07T22:52:15;1.80;99.90
59208;DHT22;44977;53.132;6.408;2023-12-07T22:57:15;1.80;99.90
59208;DHT22;44977;53.132;6.408;2023-12-07T23:02:16;1.80;99.90
59208;DHT22;44977;53.132;6.408;2023-12-07T23:07:17;1.80;99.90
59208;DHT22;44977;53.132;6.408;2023-12-07T23:12:18;1.80;99.90
59208;DHT22;44977;53.132;6.408;2023-12-07T23:17:18;1.80;99.90
59208;DHT22;44977;53.132;6.408;2023-12-07T23:22:19;1.80;99.90
59208;DHT22;44977;53.132;6.408;2023-12-07T23:27:20;1.80;99.90
59208;DHT22;44977;53.132;6.408;2023-12-07T23:32:21;1.80;99.90
59208;DHT22;44977;53.132;6.408;2023-12-07T23:37:22;1.80;99.90
59208;DHT22;44977;53.132;6.408;2023-12-07T23:42:22;1.80;99.90
59208;DHT22;44977;53.132;6.408;2023-12-07T23:47:23;1.80;99.90
59208;DHT22;44977;53.132;6.408;2023-12-07T23:52:24;1.80;99.90
59208;DHT22;44977;53.132;6.408;2023-12-07T23:57:24;1.70;99.90
